Time;durP1;ratioP1;P1;durP2;ratioP2;P2;SDS_P1;SDS_P2;PMS_P1;PMS_P2;Temp;Humidity;BMP_temperature;BMP_pressure;BME280_temperature;BME280_humidity;BME280_pressure;Samples;Min_cycle;Max_cycle;Signal;HPM_P1;HPM_P2
2023/05/03 00:01:21;;;;;;;7.50;3.20;;;;;;;12.45;45.79;101218.55;104861;1257;60910;-48
2023/05/03 00:03:51;;;;;;;5.60;2.50;;;;;;;12.45;45.62;101224.75;104812;1254;60460;-47
2023/05/03 00:06:18;;;;;;;6.10;2.60;;;;;;;12.44;45.64;101226.02;104704;1259;66213;-47
2023/05/03 00:08:45;;;;;;;6.40;2.80;;;;;;;12.42;45.76;101224.42;104761;1260;62365;-47
2023/05/03 00:11:12;;;;;;;6.00;2.70;;;;;;;12.40;45.80;101226.36;104763;1258;66765;-55
2023/05/03 00:13:39;;;;;;;7.50;3.10;;;;;;;12.37;45.86;101227.78;107564;1259;59391;-46
2023/05/03 00:16:06;;;;;;;7.60;2.60;;;;;;;12.35;45.93;101224.92;104777;1255;60367;-47
2023/05/03 00:18:33;;;;;;;7.60;2.90;;;;;;;12.34;45.46;101222.70;104691;1260;67009;-47
2023/05/03 00:21:00;;;;;;;7.20;2.40;;;;;;;12.39;45.08;101218.34;104838;1260;62617;-47
2023/05/03 00:23:27;;;;;;;6.00;2.40;;;;;;;12.44;44.46;101218.98;104801;1259;66209;-48
2023/05/03 00:25:55;;;;;;;7.90;2.50;;;;;;;12.51;43.89;101218.28;104629;1260;60459;-46
2023/05/03 00:28:22;;;;;;;5.60;2.40;;;;;;;12.60;43.49;101219.02;107393;1254;58465;-49
2023/05/03 00:30:50;;;;;;;5.40;2.00;;;;;;;12.70;43.14;101220.40;105721;1257;67376;-47
2023/05/03 00:33:17;;;;;;;5.90;2.10;;;;;;;12.78;42.84;101216.29;107402;1262;62494;-47
2023/05/03 00:35:44;;;;;;;4.80;2.10;;;;;;;12.86;42.66;101215.88;104742;1261;66359;-46
2023/05/03 00:38:11;;;;;;;5.90;2.50;;;;;;;12.92;42.50;101216.77;108340;1254;60064;-47
2023/05/03 00:40:38;;;;;;;5.20;2.00;;;;;;;12.98;42.33;101214.20;104699;1259;60434;-47
2023/05/03 00:43:06;;;;;;;5.80;2.30;;;;;;;13.04;42.16;101216.91;104744;1260;67211;-46
2023/05/03 00:45:34;;;;;;;6.50;2.20;;;;;;;13.08;41.98;101219.63;105107;1260;64239;-46
2023/05/03 00:48:01;;;;;;;7.60;2.10;;;;;;;13.11;42.02;101220.23;107268;1258;65358;-46
2023/05/03 00:50:28;;;;;;;4.80;1.80;;;;;;;13.15;41.98;101218.58;104712;1255;60540;-47
2023/05/03 00:52:55;;;;;;;5.10;1.90;;;;;;;13.16;42.04;101214.98;104818;1260;61451;-47
2023/05/03 00:55:22;;;;;;;7.30;1.90;;;;;;;13.16;42.09;101212.14;104811;1263;67319;-47
2023/05/03 00:57:49;;;;;;;6.60;1.90;;;;;;;13.16;42.04;101209.67;104815;1262;62531;-47
2023/05/03 01:00:16;;;;;;;7.00;2.50;;;;;;;13.15;42.04;101209.18;104815;1260;66128;-47
2023/05/03 01:02:44;;;;;;;6.60;2.30;;;;;;;13.15;41.98;101209.91;106622;1260;60466;-48
2023/05/03 01:05:11;;;;;;;4.10;1.90;;;;;;;13.16;42.03;101207.94;104873;1269;62644;-48
2023/05/03 01:07:38;;;;;;;4.20;1.50;;;;;;;13.16;42.00;101203.17;104803;1254;67420;-47
2023/05/03 01:10:24;;;;;;;6.60;2.20;;;;;;;13.16;42.04;101204.39;104771;1262;62619;-48
2023/05/03 01:12:55;;;;;;;7.10;2.10;;;;;;;13.15;42.09;101202.48;104729;1261;66230;-47
2023/05/03 01:15:54;;;;;;;6.10;2.40;;;;;;;13.14;42.01;101202.73;104757;1260;60531;-50
2023/05/03 01:18:30;;;;;;;5.30;2.10;;;;;;;13.12;42.08;101198.54;107738;1259;59959;-48
2023/05/03 01:20:58;;;;;;;5.80;2.20;;;;;;;13.10;42.17;101196.20;108854;1259;67318;-48
2023/05/03 01:23:53;;;;;;;8.10;2.50;;;;;;;13.09;42.21;101195.11;106043;1254;63742;-49
2023/05/03 01:26:21;;;;;;;6.40;1.80;;;;;;;13.06;42.40;101190.89;105609;1260;66297;-47
2023/05/03 01:28:49;;;;;;;7.90;2.10;;;;;;;13.04;42.48;101190.34;104642;1262;60427;-47
2023/05/03 01:31:50;;;;;;;5.50;2.10;;;;;;;13.01;42.54;101189.36;104455;1254;61102;-48
2023/05/03 01:34:24;;;;;;;5.70;2.60;;;;;;;12.97;42.58;101186.27;104944;1259;66118;-51
2023/05/03 01:36:52;;;;;;;7.50;2.20;;;;;;;12.94;42.70;101183.52;105098;1259;63843;-48
2023/05/03 01:39:26;;;;;;;5.60;2.80;;;;;;;12.91;42.65;101182.19;105971;1259;65157;-49
2023/05/03 01:41:53;;;;;;;5.70;2.30;;;;;;;12.88;42.73;101180.30;104720;1262;60575;-48
2023/05/03 01:44:20;;;;;;;7.20;2.00;;;;;;;12.85;42.85;101181.59;104741;1260;60521;-47
2023/05/03 01:46:47;;;;;;;5.50;2.20;;;;;;;12.83;42.94;101179.27;104824;1263;67449;-46
2023/05/03 01:49:14;;;;;;;6.80;2.30;;;;;;;12.80;43.02;101183.23;105795;1260;62777;-48
2023/05/03 01:51:40;;;;;;;6.20;2.20;;;;;;;12.78;43.17;101182.49;104835;1260;65268;-47
2023/05/03 01:54:07;;;;;;;6.90;2.50;;;;;;;12.75;43.24;101183.09;104720;1254;60566;-46
2023/05/03 01:56:36;;;;;;;8.50;2.40;;;;;;;12.72;43.23;101181.31;105958;1259;61721;-47
2023/05/03 01:59:03;;;;;;;5.90;2.20;;;;;;;12.70;43.41;101181.52;104724;1260;67295;-47
2023/05/03 02:01:30;;;;;;;5.90;2.20;;;;;;;12.68;43.39;101181.51;104815;1263;62591;-48
2023/05/03 02:03:56;;;;;;;8.10;2.20;;;;;;;12.66;43.61;101178.29;104747;1259;66634;-47
2023/05/03 02:06:24;;;;;;;5.90;2.20;;;;;;;12.64;43.67;101177.70;104810;1260;62813;-46
2023/05/03 02:08:53;;;;;;;6.50;2.70;;;;;;;12.63;43.68;101175.34;105595;1260;60334;-46
2023/05/03 02:11:20;;;;;;;5.00;1.90;;;;;;;12.61;43.75;101173.36;106873;1254;67396;-48
2023/05/03 02:13:48;;;;;;;5.50;2.10;;;;;;;12.60;43.82;101169.91;107310;1260;62841;-47
2023/05/03 02:16:19;;;;;;;7.40;2.20;;;;;;;12.60;43.97;101169.59;105899;1260;65915;-47
2023/05/03 02:18:46;;;;;;;6.70;2.60;;;;;;;12.60;44.05;101172.56;104978;1259;60449;-49
2023/05/03 02:21:13;;;;;;;7.30;2.20;;;;;;;12.60;44.12;101171.16;104734;1260;62895;-47
2023/05/03 02:23:40;;;;;;;6.90;2.80;;;;;;;12.58;44.16;101169.40;104785;1262;67322;-51
2023/05/03 02:26:07;;;;;;;6.10;2.00;;;;;;;12.57;44.22;101169.25;104816;1259;63841;-47
2023/05/03 02:28:34;;;;;;;14.00;2.80;;;;;;;12.57;44.20;101169.60;104678;1254;65143;-47
2023/05/03 02:31:01;;;;;;;6.90;3.00;;;;;;;12.58;44.27;101171.70;108777;1255;61345;-48
2023/05/03 02:33:28;;;;;;;6.20;2.60;;;;;;;12.54;44.39;101166.39;104664;1258;60374;-46
2023/05/03 02:35:55;;;;;;;9.40;2.80;;;;;;;12.49;44.55;101167.27;104718;1260;67952;-47
2023/05/03 02:38:22;;;;;;;6.90;2.60;;;;;;;12.49;44.64;101170.11;106307;1260;63606;-48
2023/05/03 02:40:49;;;;;;;12.20;3.10;;;;;;;12.49;44.78;101170.11;104829;1257;66187;-47
2023/05/03 02:43:17;;;;;;;7.10;2.80;;;;;;;12.49;44.90;101164.64;108951;1254;58402;-47
2023/05/03 02:45:44;;;;;;;9.30;2.80;;;;;;;12.50;44.86;101168.43;104939;1254;60672;-49
2023/05/03 02:48:11;;;;;;;15.00;3.50;;;;;;;12.51;44.77;101171.88;104739;1261;67467;-47
2023/05/03 02:50:39;;;;;;;15.70;3.80;;;;;;;12.52;44.92;101170.91;105266;1260;63861;-46
2023/05/03 02:53:06;;;;;;;7.50;2.60;;;;;;;12.53;45.00;101169.98;104634;1261;66759;-49
2023/05/03 02:55:33;;;;;;;9.70;2.80;;;;;;;12.53;44.99;101173.09;104594;1255;61666;-47
2023/05/03 02:58:00;;;;;;;8.30;2.70;;;;;;;12.53;44.92;101177.16;104779;1257;61614;-47
2023/05/03 03:00:27;;;;;;;11.10;2.70;;;;;;;12.54;44.99;101181.67;108826;1254;67562;-48
2023/05/03 03:02:54;;;;;;;7.30;2.60;;;;;;;12.54;45.12;101186.25;104780;1259;63982;-47
2023/05/03 03:05:22;;;;;;;6.90;2.60;;;;;;;12.53;45.12;101192.96;106397;1257;65976;-47
2023/05/03 03:07:50;;;;;;;9.80;2.70;;;;;;;12.55;45.19;101194.96;108887;1254;59233;-49
2023/05/03 03:10:17;;;;;;;6.70;2.50;;;;;;;12.58;45.10;101196.35;106570;1258;60476;-47
2023/05/03 03:12:44;;;;;;;9.30;2.60;;;;;;;12.59;45.07;101197.06;104669;1261;67573;-46
2023/05/03 03:15:14;;;;;;;8.40;2.60;;;;;;;12.61;45.09;101196.95;106706;1254;64056;-47
2023/05/03 03:17:41;;;;;;;7.80;2.30;;;;;;;12.62;45.14;101197.76;104702;1257;65176;-47
2023/05/03 03:20:12;;;;;;;9.20;2.60;;;;;;;12.63;45.09;101196.28;104782;1261;60720;-53
2023/05/03 03:22:42;;;;;;;9.40;2.40;;;;;;;12.64;45.20;101195.68;105952;1255;60364;-47
2023/05/03 03:25:09;;;;;;;7.90;2.30;;;;;;;12.65;45.15;101194.93;107550;1254;67013;-47
2023/05/03 03:27:36;;;;;;;6.90;1.60;;;;;;;12.66;45.38;101195.03;106433;1254;65332;-47
2023/05/03 03:30:07;;;;;;;14.90;2.60;;;;;;;12.67;45.50;101197.23;108807;1257;66014;-48
2023/05/03 03:32:34;;;;;;;8.00;2.00;;;;;;;12.68;45.53;101194.99;108580;1254;58568;-47
2023/05/03 03:35:02;;;;;;;4.80;1.90;;;;;;;12.71;45.66;101194.31;105189;1254;60367;-52
2023/05/03 03:37:29;;;;;;;8.10;2.30;;;;;;;12.72;45.76;101196.64;104812;1254;67368;-47
2023/05/03 03:39:57;;;;;;;5.00;2.10;;;;;;;12.75;45.67;101198.04;106388;1257;72746;-46
2023/05/03 03:42:24;;;;;;;5.50;2.30;;;;;;;12.77;45.78;101195.23;104632;1260;65333;-46
2023/05/03 03:44:52;;;;;;;8.20;2.20;;;;;;;12.79;45.76;101198.19;108887;1255;58351;-47
2023/05/03 03:47:18;;;;;;;6.00;2.30;;;;;;;12.82;45.94;101196.56;108136;1262;59353;-47
2023/05/03 03:49:46;;;;;;;5.00;2.00;;;;;;;12.86;45.82;101204.23;104739;1259;67267;-47
2023/05/03 03:52:13;;;;;;;5.40;2.20;;;;;;;12.88;45.95;101203.05;104798;1258;64476;-48
2023/05/03 03:54:40;;;;;;;9.10;2.30;;;;;;;12.90;46.12;101201.98;104796;1254;65588;-48
2023/05/03 03:57:08;;;;;;;5.40;2.00;;;;;;;12.93;46.26;101200.70;104785;1259;60610;-48
2023/05/03 03:59:35;;;;;;;5.80;2.30;;;;;;;12.97;46.31;101199.54;108872;1254;59363;-48
2023/05/03 04:02:02;;;;;;;6.20;2.20;;;;;;;13.01;46.44;101197.48;107931;1259;67028;-47
2023/05/03 04:04:30;;;;;;;7.40;2.00;;;;;;;13.05;46.36;101200.11;105017;1254;63751;-46
2023/05/03 04:06:57;;;;;;;6.30;2.10;;;;;;;13.10;46.04;101200.64;107087;1255;66918;-51
2023/05/03 04:09:25;;;;;;;8.40;1.90;;;;;;;13.14;46.08;101200.27;105491;1258;60485;-46
2023/05/03 04:11:52;;;;;;;7.90;2.30;;;;;;;13.19;46.10;101196.92;107412;1260;58400;-46
2023/05/03 04:14:20;;;;;;;10.40;2.80;;;;;;;13.22;45.93;101191.23;105121;1254;66909;-46
2023/05/03 04:16:47;;;;;;;8.00;2.90;;;;;;;13.25;46.07;101192.95;106054;1260;64170;-46
2023/05/03 04:19:17;;;;;;;12.60;3.00;;;;;;;13.29;46.08;101189.67;105176;1257;66204;-46
2023/05/03 04:21:45;;;;;;;9.50;2.90;;;;;;;13.32;46.07;101189.27;105386;1260;60438;-50
2023/05/03 04:24:14;;;;;;;8.30;2.30;;;;;;;13.35;46.09;101190.63;105203;1256;60508;-46
2023/05/03 04:26:42;;;;;;;7.40;2.00;;;;;;;13.37;45.71;101188.67;108922;1254;66288;-48
2023/05/03 04:29:14;;;;;;;10.40;2.20;;;;;;;13.40;45.67;101191.79;105877;1255;63743;-46
2023/05/03 04:31:42;;;;;;;6.60;2.70;;;;;;;13.44;45.73;101199.21;105953;1257;66045;-46
2023/05/03 04:34:13;;;;;;;11.80;3.50;;;;;;;13.47;45.52;101199.36;106789;1257;60566;-46
2023/05/03 04:36:44;;;;;;;10.30;2.50;;;;;;;13.50;45.49;101198.39;105228;1254;60629;-46
2023/05/03 04:39:12;;;;;;;7.30;2.10;;;;;;;13.53;45.36;101201.83;106257;1254;67322;-46
2023/05/03 04:41:39;;;;;;;7.70;2.10;;;;;;;13.58;45.38;101204.30;107004;1255;63533;-47
2023/05/03 04:44:07;;;;;;;6.10;1.80;;;;;;;13.63;45.37;101207.95;105525;1260;65778;-46
2023/05/03 04:46:34;;;;;;;4.70;1.90;;;;;;;13.69;45.14;101211.38;105185;1257;60447;-46
2023/05/03 04:49:02;;;;;;;5.10;1.90;;;;;;;13.75;44.97;101216.89;106439;1257;59292;-46
2023/05/03 04:51:29;;;;;;;5.80;2.10;;;;;;;13.81;44.88;101217.80;104957;1257;263097;-46
2023/05/03 04:55:02;;;;;;;6.60;2.10;;;;;;;13.78;44.88;101221.54;102257;1294;601935;-46
2023/05/03 04:57:31;;;;;;;5.20;1.70;;;;;;;14.01;44.35;101224.16;106493;1267;59341;-46
2023/05/03 04:59:58;;;;;;;4.50;1.80;;;;;;;14.08;44.06;101228.31;105234;1267;59350;-47
2023/05/03 05:02:26;;;;;;;4.60;1.90;;;;;;;14.15;44.01;101233.03;104289;1265;66631;-47
2023/05/03 05:04:53;;;;;;;6.00;1.70;;;;;;;14.21;43.64;101231.63;105644;1267;62609;-47
2023/05/03 05:07:21;;;;;;;7.70;1.90;;;;;;;14.27;43.48;101226.73;103997;1269;66074;-47
2023/05/03 05:09:48;;;;;;;6.70;1.70;;;;;;;14.32;43.31;101224.77;104306;1264;149385;-47
2023/05/03 05:12:15;;;;;;;6.00;2.20;;;;;;;14.38;43.24;101231.38;104501;1270;59654;-47
2023/05/03 05:14:42;;;;;;;4.70;1.70;;;;;;;14.43;43.24;101232.73;104402;1269;65734;-47
2023/05/03 05:17:09;;;;;;;10.40;2.80;;;;;;;14.49;43.11;101234.14;104597;1269;62857;-48
2023/05/03 05:19:36;;;;;;;3.90;2.00;;;;;;;14.56;42.94;101232.20;105238;1263;66272;-45
2023/05/03 05:22:03;;;;;;;5.40;1.70;;;;;;;14.64;42.95;101234.35;108354;1262;58185;-45
2023/05/03 05:24:38;;;;;;;4.30;1.60;;;;;;;14.74;42.68;101234.95;108326;1262;58501;-45
2023/05/03 05:27:06;;;;;;;4.90;2.10;;;;;;;14.86;42.01;101232.55;108268;1263;66342;-46
2023/05/03 05:29:33;;;;;;;5.70;1.90;;;;;;;14.99;41.61;101234.63;108232;1265;63817;-45
2023/05/03 05:32:02;;;;;;;4.30;1.80;;;;;;;15.15;41.06;101233.73;108260;1264;66050;-46
2023/05/03 05:34:30;;;;;;;6.10;2.00;;;;;;;15.29;40.74;101230.81;108242;1266;57732;-45
2023/05/03 05:37:08;;;;;;;6.10;1.80;;;;;;;15.41;40.24;101227.99;108242;1263;59499;-45
2023/05/03 05:39:35;;;;;;;6.60;1.80;;;;;;;15.53;40.03;101225.38;108348;1263;66489;-46
2023/05/03 05:42:03;;;;;;;6.10;1.80;;;;;;;15.64;39.55;101224.58;104929;1269;64106;-48
2023/05/03 05:44:31;;;;;;;4.50;1.60;;;;;;;15.76;39.45;101223.87;105903;1264;66385;-48
2023/05/03 05:46:58;;;;;;;4.00;1.30;;;;;;;15.87;38.70;101216.72;105048;1267;59835;-45
2023/05/03 05:49:25;;;;;;;5.40;1.50;;;;;;;15.97;38.33;101212.83;107584;1265;59762;-46
2023/05/03 05:51:52;;;;;;;5.40;1.80;;;;;;;16.06;37.61;101209.20;104447;1263;66541;-46
2023/05/03 05:54:19;;;;;;;7.80;1.60;;;;;;;16.15;37.56;101211.40;104213;1269;62610;-46
2023/05/03 05:56:46;;;;;;;5.70;1.60;;;;;;;16.25;37.63;101212.64;107696;1264;66099;-46
2023/05/03 05:59:13;;;;;;;4.10;1.40;;;;;;;16.36;37.21;101210.59;104741;1263;61053;-46
2023/05/03 06:01:44;;;;;;;5.20;1.70;;;;;;;16.46;36.93;101213.56;104635;1267;61255;-46
2023/05/03 06:04:14;;;;;;;4.90;1.50;;;;;;;16.54;36.79;101215.48;106326;1269;66498;-45
2023/05/03 06:06:42;;;;;;;4.70;1.30;;;;;;;16.60;36.53;101215.96;104453;1270;62749;-46
2023/05/03 06:09:09;;;;;;;3.80;1.40;;;;;;;16.69;36.84;101210.33;104615;1270;66200;-50
2023/05/03 06:11:52;;;;;;;4.60;1.80;;;;;;;16.82;36.99;101208.66;105001;1267;59801;-46
2023/05/03 06:14:19;;;;;;;4.20;1.70;;;;;;;16.97;36.50;101205.61;108229;1263;58180;-46
2023/05/03 06:16:46;;;;;;;7.20;2.10;;;;;;;17.11;36.13;101201.55;108183;1263;67267;-46
2023/05/03 06:19:13;;;;;;;4.60;1.30;;;;;;;17.22;35.82;101201.70;108179;1263;62884;-46
2023/05/03 06:21:40;;;;;;;5.50;1.50;;;;;;;17.34;35.45;101202.02;108349;1263;66199;-45
2023/05/03 06:24:07;;;;;;;6.10;1.60;;;;;;;17.45;34.53;101195.77;108250;1264;57624;-46
2023/05/03 06:26:34;;;;;;;5.50;1.80;;;;;;;17.55;33.55;101193.95;108306;1262;57272;-47
2023/05/03 06:29:02;;;;;;;4.60;1.70;;;;;;;17.64;33.22;101191.49;108117;1263;68682;-45
2023/05/03 06:31:29;;;;;;;7.20;1.70;;;;;;;17.73;32.77;101192.39;105616;1262;64312;-45
2023/05/03 06:33:56;;;;;;;7.80;1.70;;;;;;;17.80;32.36;101189.88;105086;1260;66125;-45
2023/05/03 06:36:24;;;;;;;6.50;1.60;;;;;;;17.87;32.00;101187.70;106504;1257;59919;-46
2023/05/03 06:38:51;;;;;;;4.50;1.70;;;;;;;17.93;32.06;101187.30;107353;1257;59803;-45
2023/05/03 06:41:18;;;;;;;5.20;1.90;;;;;;;18.00;31.89;101187.77;105809;1257;67226;-45
2023/05/03 06:43:46;;;;;;;8.00;1.60;;;;;;;18.10;31.71;101182.20;106746;1257;66014;-45
2023/05/03 06:46:13;;;;;;;4.70;1.30;;;;;;;18.18;31.13;101184.36;105023;1263;66785;-47
2023/05/03 06:48:40;;;;;;;7.00;1.90;;;;;;;18.26;30.99;101182.38;104963;1256;59764;-47
2023/05/03 06:51:07;;;;;;;5.30;1.90;;;;;;;18.32;30.84;101179.61;104861;1255;59786;-45
2023/05/03 06:53:34;;;;;;;6.90;1.80;;;;;;;18.40;31.00;101183.89;105471;1258;66157;-45
2023/05/03 06:56:02;;;;;;;7.40;1.50;;;;;;;18.49;30.69;101186.19;105120;1261;62611;-45
2023/05/03 06:58:29;;;;;;;6.30;1.90;;;;;;;18.58;29.17;101185.39;107912;1257;66316;-45
2023/05/03 07:00:56;;;;;;;7.20;1.40;;;;;;;18.68;28.56;101181.73;105006;1259;59769;-46
2023/05/03 07:03:23;;;;;;;5.20;1.50;;;;;;;18.77;28.33;101174.61;104954;1262;59960;-45
2023/05/03 07:05:50;;;;;;;6.80;1.70;;;;;;;18.86;28.52;101176.57;108026;1259;66139;-46
2023/05/03 07:08:17;;;;;;;7.70;1.90;;;;;;;18.96;28.29;101164.33;105144;1262;63463;-47
2023/05/03 07:10:44;;;;;;;5.50;1.30;;;;;;;19.08;27.77;101155.41;105038;1258;66086;-46
2023/05/03 07:13:11;;;;;;;8.50;1.30;;;;;;;19.18;26.63;101154.02;105064;1262;59759;-45
2023/05/03 07:15:38;;;;;;;12.30;2.90;;;;;;;19.25;26.40;101156.89;105601;1256;59779;-45
2023/05/03 07:18:06;;;;;;;24.40;4.60;;;;;;;19.32;26.58;101158.31;105065;1257;66332;-47
2023/05/03 07:20:33;;;;;;;4.00;1.10;;;;;;;19.40;26.18;101159.08;108530;1256;62726;-45
2023/05/03 07:23:00;;;;;;;5.40;1.70;;;;;;;19.46;26.26;101159.80;105090;1258;66167;-48
2023/05/03 07:25:27;;;;;;;4.80;1.50;;;;;;;19.54;26.28;101162.05;106487;1262;59688;-45
2023/05/03 07:27:54;;;;;;;6.70;2.30;;;;;;;19.63;26.20;101165.14;108096;1257;57913;-51
2023/05/03 07:30:21;;;;;;;8.40;2.00;;;;;;;19.74;25.54;101159.70;105103;1257;65478;-46
2023/05/03 07:32:49;;;;;;;4.90;1.80;;;;;;;19.82;25.52;101160.84;105105;1260;63737;-50
2023/05/03 07:35:18;;;;;;;7.80;1.80;;;;;;;19.88;24.92;101161.36;108651;1257;66275;-47
2023/05/03 07:37:45;;;;;;;10.70;2.60;;;;;;;19.93;24.86;101157.79;107490;1259;59746;-48
2023/05/03 07:40:12;;;;;;;5.50;1.90;;;;;;;20.00;24.45;101158.73;105106;1259;59634;-47
2023/05/03 07:42:39;;;;;;;7.00;1.90;;;;;;;20.07;24.09;101156.36;106849;1261;75109;-46
2023/05/03 07:45:06;;;;;;;4.40;2.10;;;;;;;20.11;23.91;101158.27;105006;1257;63915;-46
2023/05/03 07:47:36;;;;;;;3.80;1.50;;;;;;;20.15;23.88;101152.48;105133;1257;68995;-47
2023/05/03 07:50:04;;;;;;;3.80;1.50;;;;;;;20.19;23.67;101151.52;108733;1256;58563;-47
2023/05/03 07:52:36;;;;;;;8.50;1.20;;;;;;;20.25;23.16;101157.33;106264;1258;59710;-48
2023/05/03 07:55:03;;;;;;;4.20;1.30;;;;;;;20.26;22.47;101158.63;105808;1256;65535;-48
2023/05/03 07:57:30;;;;;;;8.40;1.40;;;;;;;20.26;22.34;101154.23;106383;1262;63776;-46
2023/05/03 07:59:57;;;;;;;9.30;1.40;;;;;;;20.28;22.91;101147.51;104987;1258;64947;-46
2023/05/03 08:02:24;;;;;;;3.30;1.30;;;;;;;20.37;22.85;101147.85;105102;1262;59629;-46
2023/05/03 08:04:53;;;;;;;7.10;1.90;;;;;;;20.45;23.19;101143.55;105850;1258;59631;-47
2023/05/03 08:07:20;;;;;;;5.00;1.40;;;;;;;20.50;23.47;101142.98;106622;1257;66520;-47
2023/05/03 08:09:48;;;;;;;5.70;1.30;;;;;;;20.55;23.74;101143.14;104769;1256;63985;-47
2023/05/03 08:12:15;;;;;;;4.60;1.30;;;;;;;20.61;23.59;101140.40;105534;1257;66197;-47
2023/05/03 08:14:42;;;;;;;7.20;1.80;;;;;;;20.64;23.66;101137.34;104574;1262;60139;-46
2023/05/03 08:17:10;;;;;;;6.30;1.40;;;;;;;20.70;24.20;101138.63;104625;1261;59640;-46
2023/05/03 08:19:37;;;;;;;7.30;1.50;;;;;;;20.77;23.75;101141.08;104501;1256;65466;-46
2023/05/03 08:22:04;;;;;;;4.80;1.40;;;;;;;20.77;23.48;101142.29;104737;1260;62781;-46
2023/05/03 08:24:31;;;;;;;5.30;1.50;;;;;;;20.78;23.41;101141.17;104600;1260;65050;-46
2023/05/03 08:26:58;;;;;;;5.30;1.30;;;;;;;20.79;23.63;101143.22;104644;1259;59800;-47
2023/05/03 08:29:25;;;;;;;7.90;1.70;;;;;;;20.83;23.84;101147.01;104584;1257;59679;-46
2023/05/03 08:31:53;;;;;;;6.30;1.80;;;;;;;20.89;23.57;101141.71;104597;1258;65717;-46
2023/05/03 08:34:20;;;;;;;6.40;1.50;;;;;;;20.96;23.92;101143.26;104689;1259;64176;-47
2023/05/03 08:36:47;;;;;;;5.10;1.20;;;;;;;21.03;23.63;101143.67;104534;1262;66158;-46
2023/05/03 08:39:14;;;;;;;8.60;1.40;;;;;;;21.08;23.18;101146.73;108634;1256;57450;-47
2023/05/03 08:41:41;;;;;;;5.00;1.70;;;;;;;21.11;22.89;101146.89;107481;1257;59467;-46
2023/05/03 08:44:10;;;;;;;5.60;1.60;;;;;;;21.12;22.74;101138.71;104356;1256;66675;-47
2023/05/03 08:46:37;;;;;;;5.80;1.40;;;;;;;21.16;23.05;101140.45;105115;1256;63816;-45
2023/05/03 08:49:06;;;;;;;4.60;1.20;;;;;;;21.25;23.27;101141.06;108744;1257;65384;-45
2023/05/03 08:51:33;;;;;;;5.70;1.80;;;;;;;21.31;23.27;101138.73;108563;1256;59037;-45
2023/05/03 08:53:59;;;;;;;5.40;1.50;;;;;;;21.35;23.28;101132.46;108694;1256;57730;-45
2023/05/03 08:56:36;;;;;;;5.40;1.60;;;;;;;21.38;23.43;101130.14;108698;1256;66928;-46
2023/05/03 08:59:06;;;;;;;6.30;1.30;;;;;;;21.41;23.61;101122.13;108636;1256;62987;-46
2023/05/03 09:01:37;;;;;;;6.00;1.70;;;;;;;21.45;23.79;101118.69;108676;1256;66203;-47
2023/05/03 09:04:05;;;;;;;5.00;1.30;;;;;;;21.48;23.40;101117.25;108682;1256;59000;-46
2023/05/03 09:06:32;;;;;;;5.20;1.40;;;;;;;21.50;23.12;101124.34;108687;1258;58363;-46
2023/05/03 09:09:00;;;;;;;4.30;1.50;;;;;;;21.51;23.12;101127.23;106143;1257;67361;-47
2023/05/03 09:11:29;;;;;;;8.20;1.40;;;;;;;21.54;22.99;101124.61;104586;1260;62669;-47
2023/05/03 09:14:16;;;;;;;7.70;1.50;;;;;;;21.58;23.23;101133.64;104451;1259;66708;-48
2023/05/03 09:16:45;;;;;;;7.20;1.40;;;;;;;21.63;23.84;101133.48;104668;1260;60418;-47
2023/05/03 09:19:13;;;;;;;4.40;1.20;;;;;;;21.70;24.21;101129.37;108734;1259;58327;-47
2023/05/03 09:21:41;;;;;;;5.60;1.40;;;;;;;21.77;24.27;101123.73;107654;1259;67007;-45
2023/05/03 09:24:11;;;;;;;4.50;1.30;;;;;;;21.87;24.19;101125.45;108648;1256;62612;-45
2023/05/03 09:26:39;;;;;;;6.70;1.40;;;;;;;21.98;24.04;101121.83;108661;1257;65152;-45
2023/05/03 09:29:06;;;;;;;5.10;1.30;;;;;;;22.08;23.38;101130.23;107626;1257;60521;-50
2023/05/03 09:31:34;;;;;;;5.10;1.70;;;;;;;22.12;23.23;101128.74;105638;1257;60531;-46
2023/05/03 09:34:01;;;;;;;5.40;1.50;;;;;;;22.10;23.16;101125.77;105026;1259;67900;-46
2023/05/03 09:36:28;;;;;;;6.10;1.30;;;;;;;22.09;23.72;101110.18;105603;1256;63351;-45
2023/05/03 09:38:55;;;;;;;5.40;1.50;;;;;;;22.13;23.58;101118.61;104831;1258;66087;-45
2023/05/03 09:41:27;;;;;;;11.90;1.90;;;;;;;22.15;23.19;101123.59;108635;1259;58689;-46
2023/05/03 09:43:55;;;;;;;6.20;1.30;;;;;;;22.14;23.54;101125.33;108550;1256;58561;-46
2023/05/03 09:46:26;;;;;;;8.20;1.70;;;;;;;22.19;23.82;101121.11;108687;1256;67327;-48
2023/05/03 09:48:55;;;;;;;5.40;1.50;;;;;;;22.29;23.64;101122.34;108653;1256;63635;-46
2023/05/03 09:51:22;;;;;;;4.90;1.50;;;;;;;22.37;23.09;101135.25;108587;1259;66017;-46
2023/05/03 09:53:50;;;;;;;4.30;1.40;;;;;;;22.40;23.07;101129.77;108728;1256;60353;-46
2023/05/03 09:56:19;;;;;;;3.50;1.30;;;;;;;22.41;22.86;101133.07;108667;1256;58460;-46
2023/05/03 09:58:46;;;;;;;4.80;1.30;;;;;;;22.41;22.98;101128.04;107394;1255;67310;-53
2023/05/03 10:01:13;;;;;;;4.90;1.80;;;;;;;22.43;23.46;101123.63;105080;1262;64278;-46
2023/05/03 10:03:49;;;;;;;3.60;1.20;;;;;;;22.52;23.10;101123.38;105305;1257;66201;-46
2023/05/03 10:06:28;;;;;;;3.30;1.30;;;;;;;22.60;22.88;101119.83;105200;1259;60611;-46
2023/05/03 10:09:07;;;;;;;5.20;1.30;;;;;;;22.66;22.82;101124.90;108664;1256;58344;-46
2023/05/03 10:11:37;;;;;;;4.50;1.30;;;;;;;22.70;22.80;101122.41;108674;1256;67220;-46
2023/05/03 10:14:04;;;;;;;4.30;1.20;;;;;;;22.72;22.76;101124.52;106336;1257;63451;-46
2023/05/03 10:16:35;;;;;;;4.60;1.60;;;;;;;22.75;22.69;101124.90;107033;1259;66133;-46
2023/05/03 10:19:20;;;;;;;5.60;1.50;;;;;;;22.79;22.94;101119.35;105034;1256;60563;-45
2023/05/03 10:22:06;;;;;;;5.60;1.40;;;;;;;22.87;22.97;101126.50;105977;1262;60528;-50
2023/05/03 10:24:33;;;;;;;5.70;1.50;;;;;;;22.97;22.74;101123.00;106188;1259;66908;-46
2023/05/03 10:27:00;;;;;;;8.40;1.50;;;;;;;23.05;23.01;101125.36;105201;1260;63443;-45
2023/05/03 10:29:33;;;;;;;3.80;1.50;;;;;;;23.15;22.70;101126.52;105544;1260;66009;-45
2023/05/03 10:32:04;;;;;;;6.50;1.50;;;;;;;23.21;22.60;101133.50;105070;1257;60387;-46
2023/05/03 10:34:34;;;;;;;4.20;1.40;;;;;;;23.23;22.38;101122.12;105180;1256;61438;-47
2023/05/03 10:37:04;;;;;;;5.00;1.50;;;;;;;23.29;22.60;101117.98;108691;1256;66228;-47
2023/05/03 10:39:31;;;;;;;8.10;1.60;;;;;;;23.38;22.03;101113.45;108592;1256;64284;-46
2023/05/03 10:42:07;;;;;;;4.30;1.10;;;;;;;23.47;22.07;101115.02;108645;1256;65112;-47
2023/05/03 10:44:53;;;;;;;4.80;1.40;;;;;;;23.57;21.72;101121.21;107812;1259;60473;-47
2023/05/03 10:47:23;;;;;;;;;;;;;;;23.65;22.08;101112.38;105109;1256;61610;-45
2023/05/03 10:50:16;;;;;;;5.40;1.20;;;;;;;23.76;22.29;101109.64;105045;1261;67561;-45
2023/05/03 10:52:43;;;;;;;6.70;1.60;;;;;;;23.90;22.01;101109.02;104865;1258;63750;-47
2023/05/03 10:55:10;;;;;;;4.20;1.60;;;;;;;24.01;21.57;101104.96;104661;1262;65144;-49
2023/05/03 10:57:42;;;;;;;4.10;1.30;;;;;;;24.07;21.93;101109.73;104574;1257;60485;-50
2023/05/03 11:00:27;;;;;;;5.80;1.60;;;;;;;24.12;21.56;101102.54;105000;1257;61037;-48
2023/05/03 11:03:20;;;;;;;4.90;1.40;;;;;;;24.18;21.24;101103.20;104405;1263;67291;-47
2023/05/03 11:05:47;;;;;;;4.60;1.40;;;;;;;24.24;21.16;101103.11;107233;1258;63736;-47
2023/05/03 11:08:17;;;;;;;5.60;1.40;;;;;;;24.30;21.37;101093.64;104660;1257;65910;-47
2023/05/03 11:10:48;;;;;;;6.20;1.90;;;;;;;24.35;22.11;101104.08;104617;1263;60786;-45
2023/05/03 11:13:15;;;;;;;8.20;2.40;;;;;;;24.42;22.39;101106.18;104606;1256;61106;-46
2023/05/03 11:15:42;;;;;;;4.40;1.90;;;;;;;24.50;22.41;101107.34;105000;1259;67948;-46
2023/05/03 11:18:11;;;;;;;4.30;1.30;;;;;;;24.54;21.89;101103.45;106700;1256;63841;-46
2023/05/03 11:20:37;;;;;;;6.10;2.20;;;;;;;24.53;22.12;101107.56;106163;1262;73718;-47
2023/05/03 11:23:05;;;;;;;6.80;1.80;;;;;;;24.52;22.17;101110.38;105072;1256;60553;-46
2023/05/03 11:25:33;;;;;;;4.60;1.70;;;;;;;24.52;22.28;101105.13;105026;1262;60520;-47